sensor_id;sensor_type;location;lat;lon;timestamp;pressure;altitude;pressure_sealevel;temperature;humidity
43436;BME280;36399;51.444;-2.018;2022-10-31T00:02:04;100653.91;;;11.10;100.00
43436;BME280;36399;51.444;-2.018;2022-10-31T00:04:30;100645.19;;;11.14;100.00
43436;BME280;36399;51.444;-2.018;2022-10-31T00:06:56;100655.84;;;11.23;100.00
43436;BME280;36399;51.444;-2.018;2022-10-31T00:09:22;100655.94;;;11.32;100.00
43436;BME280;36399;51.444;-2.018;2022-10-31T00:11:48;100663.00;;;11.36;100.00
43436;BME280;36399;51.444;-2.018;2022-10-31T00:14:14;100661.28;;;11.39;100.00
43436;BME280;36399;51.444;-2.018;2022-10-31T00:16:40;100663.03;;;11.39;100.00
43436;BME280;36399;51.444;-2.018;2022-10-31T00:19:08;100664.84;;;11.43;100.00
43436;BME280;36399;51.444;-2.018;2022-10-31T00:21:35;100655.25;;;11.45;100.00
43436;BME280;36399;51.444;-2.018;2022-10-31T00:24:01;100652.72;;;11.51;100.00
43436;BME280;36399;51.444;-2.018;2022-10-31T00:26:28;100655.28;;;11.47;100.00
43436;BME280;36399;51.444;-2.018;2022-10-31T00:28:54;100655.28;;;11.47;100.00
43436;BME280;36399;51.444;-2.018;2022-10-31T00:31:20;100656.09;;;11.44;100.00
43436;BME280;36399;51.444;-2.018;2022-10-31T00:33:46;100654.41;;;11.46;100.00
43436;BME280;36399;51.444;-2.018;2022-10-31T00:36:18;100652.53;;;11.41;100.00
43436;BME280;36399;51.444;-2.018;2022-10-31T00:38:45;100656.91;;;11.38;100.00
43436;BME280;36399;51.444;-2.018;2022-10-31T00:41:12;100651.56;;;11.32;100.00
43436;BME280;36399;51.444;-2.018;2022-10-31T00:43:38;100644.50;;;11.28;100.00
43436;BME280;36399;51.444;-2.018;2022-10-31T00:46:04;100641.03;;;11.29;100.00
43436;BME280;36399;51.444;-2.018;2022-10-31T00:48:30;100644.44;;;11.22;100.00
43436;BME280;36399;51.444;-2.018;2022-10-31T00:50:56;100638.22;;;11.16;100.00
43436;BME280;36399;51.444;-2.018;2022-10-31T00:53:22;100625.94;;;11.15;100.00
43436;BME280;36399;51.444;-2.018;2022-10-31T00:55:48;100631.13;;;11.10;100.00
43436;BME280;36399;51.444;-2.018;2022-10-31T00:58:14;100635.47;;;11.06;100.00
43436;BME280;36399;51.444;-2.018;2022-10-31T01:00:40;100637.25;;;11.09;100.00
43436;BME280;36399;51.444;-2.018;2022-10-31T01:03:06;100631.13;;;11.09;100.00
43436;BME280;36399;51.444;-2.018;2022-10-31T01:05:32;100632.84;;;11.06;100.00
43436;BME280;36399;51.444;-2.018;2022-10-31T01:07:59;100634.63;;;11.09;100.00
43436;BME280;36399;51.444;-2.018;2022-10-31T01:10:24;100636.28;;;11.01;100.00
43436;BME280;36399;51.444;-2.018;2022-10-31T01:12:51;100630.16;;;11.02;100.00
43436;BME280;36399;51.444;-2.018;2022-10-31T01:15:19;100631.03;;;11.01;100.00
43436;BME280;36399;51.444;-2.018;2022-10-31T01:17:46;100631.81;;;10.95;100.00
43436;BME280;36399;51.444;-2.018;2022-10-31T01:20:13;100640.50;;;10.91;100.00
43436;BME280;36399;51.444;-2.018;2022-10-31T01:22:40;100635.28;;;10.93;100.00
43436;BME280;36399;51.444;-2.018;2022-10-31T01:25:07;100631.69;;;10.88;100.00
43436;BME280;36399;51.444;-2.018;2022-10-31T01:27:34;100631.56;;;10.79;100.00
43436;BME280;36399;51.444;-2.018;2022-10-31T01:30:00;100629.69;;;10.71;100.00
43436;BME280;36399;51.444;-2.018;2022-10-31T01:32:27;100640.22;;;10.71;100.00
43436;BME280;36399;51.444;-2.018;2022-10-31T01:34:54;100630.44;;;10.61;100.00
43436;BME280;36399;51.444;-2.018;2022-10-31T01:37:21;100634.72;;;10.56;100.00
43436;BME280;36399;51.444;-2.018;2022-10-31T01:39:50;100630.28;;;10.52;100.00
43436;BME280;36399;51.444;-2.018;2022-10-31T01:42:19;100632.78;;;10.43;100.00
43436;BME280;36399;51.444;-2.018;2022-10-31T01:44:58;100630.16;;;10.43;100.00
43436;BME280;36399;51.444;-2.018;2022-10-31T01:47:45;100638.94;;;10.47;100.00
43436;BME280;36399;51.444;-2.018;2022-10-31T01:50:20;100639.75;;;10.41;100.00
43436;BME280;36399;51.444;-2.018;2022-10-31T01:52:49;100636.84;;;10.26;100.00
43436;BME280;36399;51.444;-2.018;2022-10-31T01:55:26;100640.94;;;10.11;100.00
43436;BME280;36399;51.444;-2.018;2022-10-31T01:57:57;100639.97;;;10.06;100.00
43436;BME280;36399;51.444;-2.018;2022-10-31T02:00:25;100635.59;;;10.05;100.00
43436;BME280;36399;51.444;-2.018;2022-10-31T02:02:51;100632.06;;;10.03;100.00
43436;BME280;36399;51.444;-2.018;2022-10-31T02:05:20;100637.97;;;9.92;100.00
43436;BME280;36399;51.444;-2.018;2022-10-31T02:10:34;100631.91;;;9.94;100.00
43436;BME280;36399;51.444;-2.018;2022-10-31T02:13:04;100625.88;;;10.00;100.00
43436;BME280;36399;51.444;-2.018;2022-10-31T02:15:32;100624.25;;;10.08;100.00
43436;BME280;36399;51.444;-2.018;2022-10-31T02:17:59;100620.06;;;10.18;100.00
43436;BME280;36399;51.444;-2.018;2022-10-31T02:20:29;100625.44;;;10.24;100.00
43436;BME280;36399;51.444;-2.018;2022-10-31T02:26:07;100624.88;;;10.41;100.00
43436;BME280;36399;51.444;-2.018;2022-10-31T02:33:35;100622.47;;;10.55;100.00
43436;BME280;36399;51.444;-2.018;2022-10-31T02:39:00;100622.66;;;10.67;100.00
43436;BME280;36399;51.444;-2.018;2022-10-31T02:44:11;100614.97;;;10.81;100.00
43436;BME280;36399;51.444;-2.018;2022-10-31T02:46:52;100619.28;;;10.78;100.00
43436;BME280;36399;51.444;-2.018;2022-10-31T02:52:24;100620.03;;;10.69;100.00
43436;BME280;36399;51.444;-2.018;2022-10-31T02:54:52;100621.88;;;10.74;100.00
43436;BME280;36399;51.444;-2.018;2022-10-31T02:57:25;100611.50;;;10.84;100.00
43436;BME280;36399;51.444;-2.018;2022-10-31T03:00:02;100607.22;;;10.92;100.00
43436;BME280;36399;51.444;-2.018;2022-10-31T03:03:00;100603.84;;;10.99;100.00
43436;BME280;36399;51.444;-2.018;2022-10-31T03:05:53;100604.72;;;10.98;100.00
43436;BME280;36399;51.444;-2.018;2022-10-31T03:11:07;100601.19;;;10.96;100.00
43436;BME280;36399;51.444;-2.018;2022-10-31T03:16:24;100589.00;;;11.01;100.00
43436;BME280;36399;51.444;-2.018;2022-10-31T03:18:57;100597.78;;;11.03;100.00
43436;BME280;36399;51.444;-2.018;2022-10-31T03:24:13;100587.84;;;10.84;100.00
43436;BME280;36399;51.444;-2.018;2022-10-31T03:26:50;100572.88;;;10.77;100.00
43436;BME280;36399;51.444;-2.018;2022-10-31T03:29:22;100575.53;;;10.80;100.00
43436;BME280;36399;51.444;-2.018;2022-10-31T03:31:53;100578.19;;;10.81;100.00
43436;BME280;36399;51.444;-2.018;2022-10-31T03:34:21;100575.53;;;10.80;100.00
43436;BME280;36399;51.444;-2.018;2022-10-31T03:36:50;100571.19;;;10.82;100.00
43436;BME280;36399;51.444;-2.018;2022-10-31T03:39:19;100569.44;;;10.82;100.00
43436;BME280;36399;51.444;-2.018;2022-10-31T03:41:53;100579.06;;;10.82;100.00
43436;BME280;36399;51.444;-2.018;2022-10-31T03:44:22;100578.13;;;10.77;100.00
43436;BME280;36399;51.444;-2.018;2022-10-31T03:46:49;100581.63;;;10.77;100.00
43436;BME280;36399;51.444;-2.018;2022-10-31T03:49:16;100585.06;;;10.71;100.00
43436;BME280;36399;51.444;-2.018;2022-10-31T03:52:10;100580.69;;;10.70;100.00
43436;BME280;36399;51.444;-2.018;2022-10-31T03:54:37;100581.44;;;10.63;100.00
43436;BME280;36399;51.444;-2.018;2022-10-31T03:57:16;100580.28;;;10.43;100.00
43436;BME280;36399;51.444;-2.018;2022-10-31T03:59:48;100571.25;;;10.26;100.00
43436;BME280;36399;51.444;-2.018;2022-10-31T04:02:18;100572.97;;;10.24;100.00
43436;BME280;36399;51.444;-2.018;2022-10-31T04:04:47;100586.06;;;10.22;100.00
43436;BME280;36399;51.444;-2.018;2022-10-31T04:07:14;100571.19;;;10.23;100.00
43436;BME280;36399;51.444;-2.018;2022-10-31T04:09:43;100579.94;;;10.22;100.00
43436;BME280;36399;51.444;-2.018;2022-10-31T04:12:12;100583.78;;;10.42;100.00
43436;BME280;36399;51.444;-2.018;2022-10-31T04:14:41;100564.88;;;10.67;100.00
43436;BME280;36399;51.444;-2.018;2022-10-31T04:17:12;100558.88;;;10.78;100.00
43436;BME280;36399;51.444;-2.018;2022-10-31T04:19:39;100566.81;;;10.81;100.00
43436;BME280;36399;51.444;-2.018;2022-10-31T04:22:05;100560.75;;;10.86;100.00
43436;BME280;36399;51.444;-2.018;2022-10-31T04:24:31;100543.28;;;10.88;100.00
43436;BME280;36399;51.444;-2.018;2022-10-31T04:26:57;100547.59;;;10.85;100.00
43436;BME280;36399;51.444;-2.018;2022-10-31T04:29:23;100540.66;;;10.90;100.00
43436;BME280;36399;51.444;-2.018;2022-10-31T04:31:49;100537.25;;;10.95;100.00
43436;BME280;36399;51.444;-2.018;2022-10-31T04:34:15;100542.56;;;11.00;100.00
43436;BME280;36399;51.444;-2.018;2022-10-31T04:36:41;100551.50;;;11.14;100.00
43436;BME280;36399;51.444;-2.018;2022-10-31T04:39:07;100551.59;;;11.23;100.00
43436;BME280;36399;51.444;-2.018;2022-10-31T04:41:33;100549.94;;;11.31;100.00
43436;BME280;36399;51.444;-2.018;2022-10-31T04:43:59;100551.69;;;11.32;100.00
43436;BME280;36399;51.444;-2.018;2022-10-31T04:46:24;100556.19;;;11.43;100.00
43436;BME280;36399;51.444;-2.018;2022-10-31T04:48:50;100551.78;;;11.42;100.00
43436;BME280;36399;51.444;-2.018;2022-10-31T04:51:16;100552.75;;;11.45;100.00
43436;BME280;36399;51.444;-2.018;2022-10-31T04:53:42;100551.88;;;11.48;100.00
43436;BME280;36399;51.444;-2.018;2022-10-31T04:56:08;100548.41;;;11.52;100.00
43436;BME280;36399;51.444;-2.018;2022-10-31T04:58:34;100548.50;;;11.59;100.00
43436;BME280;36399;51.444;-2.018;2022-10-31T05:01:00;100542.38;;;11.62;100.00
43436;BME280;36399;51.444;-2.018;2022-10-31T05:03:26;100546.75;;;11.61;100.00
43436;BME280;36399;51.444;-2.018;2022-10-31T05:05:52;100550.38;;;11.73;100.00
43436;BME280;36399;51.444;-2.018;2022-10-31T05:08:18;100553.00;;;11.73;100.00
43436;BME280;36399;51.444;-2.018;2022-10-31T05:10:43;100554.78;;;11.74;100.00
43436;BME280;36399;51.444;-2.018;2022-10-31T05:13:10;100549.50;;;11.72;100.00
43436;BME280;36399;51.444;-2.018;2022-10-31T05:15:36;100538.88;;;11.61;100.00
43436;BME280;36399;51.444;-2.018;2022-10-31T05:18:02;100544.06;;;11.54;100.00
43436;BME280;36399;51.444;-2.018;2022-10-31T05:20:29;100543.16;;;11.52;100.00
43436;BME280;36399;51.444;-2.018;2022-10-31T05:22:56;100537.88;;;11.49;100.00
43436;BME280;36399;51.444;-2.018;2022-10-31T05:25:25;100533.47;;;11.48;100.00
43436;BME280;36399;51.444;-2.018;2022-10-31T05:27:53;100540.50;;;11.47;100.00
43436;BME280;36399;51.444;-2.018;2022-10-31T05:30:26;100539.59;;;11.47;100.00
43436;BME280;36399;51.444;-2.018;2022-10-31T05:32:52;100540.53;;;11.52;100.00
43436;BME280;36399;51.444;-2.018;2022-10-31T05:35:24;100527.38;;;11.49;100.00
43436;BME280;36399;51.444;-2.018;2022-10-31T05:37:51;100528.28;;;11.52;100.00
43436;BME280;36399;51.444;-2.018;2022-10-31T05:40:18;100528.31;;;11.57;100.00
43436;BME280;36399;51.444;-2.018;2022-10-31T05:42:45;100524.78;;;11.53;100.00
43436;BME280;36399;51.444;-2.018;2022-10-31T05:45:14;100521.28;;;11.54;100.00
43436;BME280;36399;51.444;-2.018;2022-10-31T05:47:41;100514.31;;;11.58;100.00
43436;BME280;36399;51.444;-2.018;2022-10-31T05:50:08;100524.03;;;11.68;100.00
43436;BME280;36399;51.444;-2.018;2022-10-31T05:52:35;100508.28;;;11.71;100.00
43436;BME280;36399;51.444;-2.018;2022-10-31T05:55:00;100510.00;;;11.66;100.00
43436;BME280;36399;51.444;-2.018;2022-10-31T05:57:28;100503.88;;;11.67;100.00
43436;BME280;36399;51.444;-2.018;2022-10-31T05:59:54;100504.75;;;11.69;100.00
43436;BME280;36399;51.444;-2.018;2022-10-31T06:02:21;100503.88;;;11.70;100.00
43436;BME280;36399;51.444;-2.018;2022-10-31T06:04:47;100501.22;;;11.64;100.00
43436;BME280;36399;51.444;-2.018;2022-10-31T06:07:13;100504.66;;;11.58;100.00
43436;BME280;36399;51.444;-2.018;2022-10-31T06:09:39;100499.41;;;11.57;100.00
43436;BME280;36399;51.444;-2.018;2022-10-31T06:12:05;100499.38;;;11.55;100.00
43436;BME280;36399;51.444;-2.018;2022-10-31T06:14:31;100497.63;;;11.56;100.00
43436;BME280;36399;51.444;-2.018;2022-10-31T06:16:57;100492.34;;;11.53;100.00
43436;BME280;36399;51.444;-2.018;2022-10-31T06:19:23;100492.31;;;11.50;100.00
43436;BME280;36399;51.444;-2.018;2022-10-31T06:21:49;100498.22;;;11.27;100.00
43436;BME280;36399;51.444;-2.018;2022-10-31T06:24:15;100486.84;;;11.31;100.00
43436;BME280;36399;51.444;-2.018;2022-10-31T06:26:41;100483.34;;;11.29;100.00
43436;BME280;36399;51.444;-2.018;2022-10-31T06:29:07;100484.13;;;11.21;100.00
43436;BME280;36399;51.444;-2.018;2022-10-31T06:31:33;100485.06;;;11.27;100.00
43436;BME280;36399;51.444;-2.018;2022-10-31T06:33:58;100485.09;;;11.30;100.00
43436;BME280;36399;51.444;-2.018;2022-10-31T06:36:24;100486.84;;;11.31;100.00
43436;BME280;36399;51.444;-2.018;2022-10-31T06:38:50;100481.63;;;11.34;100.00
43436;BME280;36399;51.444;-2.018;2022-10-31T06:41:16;100479.88;;;11.33;100.00
43436;BME280;36399;51.444;-2.018;2022-10-31T06:43:42;100479.81;;;11.27;100.00
43436;BME280;36399;51.444;-2.018;2022-10-31T06:46:11;100484.13;;;11.22;100.00
43436;BME280;36399;51.444;-2.018;2022-10-31T06:48:37;100488.53;;;11.23;100.00
43436;BME280;36399;51.444;-2.018;2022-10-31T06:51:03;100490.22;;;11.18;100.00
43436;BME280;36399;51.444;-2.018;2022-10-31T06:53:29;100492.13;;;11.31;100.00
43436;BME280;36399;51.444;-2.018;2022-10-31T06:55:58;100489.50;;;11.33;100.00
43436;BME280;36399;51.444;-2.018;2022-10-31T06:58:24;100487.69;;;11.26;100.00
43436;BME280;36399;51.444;-2.018;2022-10-31T07:00:50;100476.19;;;11.16;100.00
43436;BME280;36399;51.444;-2.018;2022-10-31T07:03:16;100474.50;;;11.21;100.00
43436;BME280;36399;51.444;-2.018;2022-10-31T07:05:43;100477.03;;;11.14;100.00
43436;BME280;36399;51.444;-2.018;2022-10-31T07:08:11;100471.72;;;11.07;100.00
43436;BME280;36399;51.444;-2.018;2022-10-31T07:10:39;100472.59;;;11.08;100.00
43436;BME280;36399;51.444;-2.018;2022-10-31T07:13:09;100473.47;;;11.05;100.00
43436;BME280;36399;51.444;-2.018;2022-10-31T07:15:37;100466.59;;;11.18;100.00
43436;BME280;36399;51.444;-2.018;2022-10-31T07:18:05;100463.94;;;11.17;100.00
43436;BME280;36399;51.444;-2.018;2022-10-31T07:20:31;100460.38;;;11.12;100.00
43436;BME280;36399;51.444;-2.018;2022-10-31T07:22:59;100466.53;;;11.12;100.00
43436;BME280;36399;51.444;-2.018;2022-10-31T07:25:26;100460.41;;;11.13;100.00
43436;BME280;36399;51.444;-2.018;2022-10-31T07:27:52;100465.72;;;11.19;100.00
43436;BME280;36399;51.444;-2.018;2022-10-31T07:30:18;100463.94;;;11.18;100.00
43436;BME280;36399;51.444;-2.018;2022-10-31T07:32:46;100467.44;;;11.17;100.00
43436;BME280;36399;51.444;-2.018;2022-10-31T07:35:15;100460.44;;;11.16;100.00
43436;BME280;36399;51.444;-2.018;2022-10-31T07:37:41;100457.81;;;11.16;100.00
43436;BME280;36399;51.444;-2.018;2022-10-31T07:40:08;100461.28;;;11.15;100.00
43436;BME280;36399;51.444;-2.018;2022-10-31T07:42:39;100467.44;;;11.17;100.00
43436;BME280;36399;51.444;-2.018;2022-10-31T07:45:07;100452.59;;;11.22;100.00
43436;BME280;36399;51.444;-2.018;2022-10-31T07:47:44;100457.00;;;11.23;100.00
43436;BME280;36399;51.444;-2.018;2022-10-31T07:50:13;100447.44;;;11.31;100.00
43436;BME280;36399;51.444;-2.018;2022-10-31T07:52:39;100451.97;;;11.45;100.00
43436;BME280;36399;51.444;-2.018;2022-10-31T07:55:06;100442.41;;;11.56;100.00
43436;BME280;36399;51.444;-2.018;2022-10-31T07:57:32;100441.63;;;11.67;100.00
43436;BME280;36399;51.444;-2.018;2022-10-31T07:59:58;100455.72;;;11.76;100.00
43436;BME280;36399;51.444;-2.018;2022-10-31T08:02:25;100454.94;;;11.83;100.00
43436;BME280;36399;51.444;-2.018;2022-10-31T08:04:51;100457.63;;;11.93;100.00
43436;BME280;36399;51.444;-2.018;2022-10-31T08:07:17;100461.25;;;12.03;100.00
43436;BME280;36399;51.444;-2.018;2022-10-31T08:09:44;100453.41;;;12.15;100.00
43436;BME280;36399;51.444;-2.018;2022-10-31T08:12:10;100458.72;;;12.23;100.00
43436;BME280;36399;51.444;-2.018;2022-10-31T08:14:36;100464.03;;;12.32;100.00
43436;BME280;36399;51.444;-2.018;2022-10-31T08:17:02;100465.00;;;12.46;100.00
43436;BME280;36399;51.444;-2.018;2022-10-31T08:19:27;100465.91;;;12.50;100.00
43436;BME280;36399;51.444;-2.018;2022-10-31T08:21:53;100470.34;;;12.55;100.00
43436;BME280;36399;51.444;-2.018;2022-10-31T08:24:22;100458.94;;;12.56;100.00
43436;BME280;36399;51.444;-2.018;2022-10-31T08:26:48;100464.19;;;12.59;100.00
43436;BME280;36399;51.444;-2.018;2022-10-31T08:29:14;100474.78;;;12.67;100.00
43436;BME280;36399;51.444;-2.018;2022-10-31T08:31:40;100474.78;;;12.73;100.00
43436;BME280;36399;51.444;-2.018;2022-10-31T08:34:06;100472.19;;;12.78;100.00
43436;BME280;36399;51.444;-2.018;2022-10-31T08:36:33;100473.09;;;12.86;100.00
43436;BME280;36399;51.444;-2.018;2022-10-31T08:38:59;100471.34;;;12.91;100.00
43436;BME280;36399;51.444;-2.018;2022-10-31T08:41:25;100481.91;;;12.95;100.00
43436;BME280;36399;51.444;-2.018;2022-10-31T08:43:50;100480.19;;;13.07;100.00
43436;BME280;36399;51.444;-2.018;2022-10-31T08:46:17;100476.75;;;13.18;100.00
43436;BME280;36399;51.444;-2.018;2022-10-31T08:48:43;100469.72;;;13.22;100.00
43436;BME280;36399;51.444;-2.018;2022-10-31T08:51:09;100482.03;;;13.18;100.00
43436;BME280;36399;51.444;-2.018;2022-10-31T08:53:36;100473.25;;;13.22;100.00
43436;BME280;36399;51.444;-2.018;2022-10-31T08:56:02;100473.19;;;13.15;100.00
43436;BME280;36399;51.444;-2.018;2022-10-31T08:58:28;100473.19;;;13.16;100.00
43436;BME280;36399;51.444;-2.018;2022-10-31T09:00:54;100471.47;;;13.18;100.00
43436;BME280;36399;51.444;-2.018;2022-10-31T09:03:25;100469.72;;;13.23;100.00
43436;BME280;36399;51.444;-2.018;2022-10-31T09:05:55;100468.84;;;13.26;100.00
43436;BME280;36399;51.444;-2.018;2022-10-31T09:08:21;100453.03;;;13.24;100.00
43436;BME280;36399;51.444;-2.018;2022-10-31T09:10:48;100467.13;;;13.46;100.00
43436;BME280;36399;51.444;-2.018;2022-10-31T09:13:19;100461.88;;;13.58;100.00
43436;BME280;36399;51.444;-2.018;2022-10-31T09:15:47;100453.94;;;14.09;100.00
43436;BME280;36399;51.444;-2.018;2022-10-31T09:18:15;100438.94;;;14.26;100.00
43436;BME280;36399;51.444;-2.018;2022-10-31T09:20:43;100438.00;;;14.62;100.00
43436;BME280;36399;51.444;-2.018;2022-10-31T09:23:11;100415.91;;;14.77;100.00
43436;BME280;36399;51.444;-2.018;2022-10-31T09:25:38;100385.38;;;15.57;100.00
43436;BME280;36399;51.444;-2.018;2022-10-31T09:28:09;100358.81;;;15.72;100.00
43436;BME280;36399;51.444;-2.018;2022-10-31T09:30:36;100343.03;;;15.57;100.00
43436;BME280;36399;51.444;-2.018;2022-10-31T09:33:10;100337.53;;;15.85;100.00
43436;BME280;36399;51.444;-2.018;2022-10-31T09:35:37;100317.63;;;16.25;100.00
43436;BME280;36399;51.444;-2.018;2022-10-31T09:38:37;100316.13;;;16.03;100.00
43436;BME280;36399;51.444;-2.018;2022-10-31T09:41:35;100305.41;;;16.15;100.00
43436;BME280;36399;51.444;-2.018;2022-10-31T09:44:14;100300.13;;;16.12;100.00
43436;BME280;36399;51.444;-2.018;2022-10-31T09:47:00;100285.41;;;16.57;100.00
43436;BME280;36399;51.444;-2.018;2022-10-31T09:52:09;100286.09;;;16.04;100.00
43436;BME280;36399;51.444;-2.018;2022-10-31T09:54:57;100281.34;;;15.52;100.00
43436;BME280;36399;51.444;-2.018;2022-10-31T09:57:32;100296.72;;;15.15;100.00
43436;BME280;36399;51.444;-2.018;2022-10-31T09:59:59;100306.72;;;14.72;100.00
43436;BME280;36399;51.444;-2.018;2022-10-31T10:02:36;100302.38;;;14.60;100.00
43436;BME280;36399;51.444;-2.018;2022-10-31T10:05:06;100311.19;;;14.61;100.00
43436;BME280;36399;51.444;-2.018;2022-10-31T10:16:12;100302.31;;;14.71;100.00
43436;BME280;36399;51.444;-2.018;2022-10-31T10:18:47;100291.72;;;14.74;100.00
43436;BME280;36399;51.444;-2.018;2022-10-31T10:21:39;100283.72;;;14.83;100.00
43436;BME280;36399;51.444;-2.018;2022-10-31T10:24:21;100276.56;;;14.97;100.00
43436;BME280;36399;51.444;-2.018;2022-10-31T10:27:06;100264.34;;;14.81;100.00
43436;BME280;36399;51.444;-2.018;2022-10-31T10:29:44;100271.53;;;14.62;100.00
43436;BME280;36399;51.444;-2.018;2022-10-31T10:32:25;100273.31;;;14.56;100.00
43436;BME280;36399;51.444;-2.018;2022-10-31T10:35:00;100268.03;;;14.56;100.00
43436;BME280;36399;51.444;-2.018;2022-10-31T10:37:31;100250.44;;;14.55;100.00
43436;BME280;36399;51.444;-2.018;2022-10-31T10:40:07;100266.31;;;14.51;100.00
43436;BME280;36399;51.444;-2.018;2022-10-31T10:42:37;100264.34;;;14.84;100.00
43436;BME280;36399;51.444;-2.018;2022-10-31T10:45:21;100260.69;;;14.99;100.00
43436;BME280;36399;51.444;-2.018;2022-10-31T10:48:16;100250.94;;;15.04;100.00
43436;BME280;36399;51.444;-2.018;2022-10-31T10:50:48;100244.78;;;15.03;100.00
43436;BME280;36399;51.444;-2.018;2022-10-31T10:58:57;100221.81;;;15.93;100.00
43436;BME280;36399;51.444;-2.018;2022-10-31T11:01:23;100217.16;;;16.10;100.00
43436;BME280;36399;51.444;-2.018;2022-10-31T11:03:50;100218.03;;;16.14;100.00
43436;BME280;36399;51.444;-2.018;2022-10-31T11:06:21;100212.63;;;16.21;100.00
43436;BME280;36399;51.444;-2.018;2022-10-31T11:08:52;100219.31;;;15.82;100.00
43436;BME280;36399;51.444;-2.018;2022-10-31T11:11:29;100221.50;;;15.40;100.00
43436;BME280;36399;51.444;-2.018;2022-10-31T11:14:03;100230.63;;;15.12;100.00
43436;BME280;36399;51.444;-2.018;2022-10-31T11:16:33;100228.88;;;15.06;100.00
43436;BME280;36399;51.444;-2.018;2022-10-31T11:19:25;100228.00;;;15.06;100.00
43436;BME280;36399;51.444;-2.018;2022-10-31T11:21:53;100226.16;;;15.19;100.00
43436;BME280;36399;51.444;-2.018;2022-10-31T11:24:22;100223.22;;;15.46;100.00
43436;BME280;36399;51.444;-2.018;2022-10-31T11:26:49;100223.09;;;15.61;100.00
43436;BME280;36399;51.444;-2.018;2022-10-31T11:29:20;100211.25;;;15.91;100.00
43436;BME280;36399;51.444;-2.018;2022-10-31T11:31:47;100199.88;;;15.83;100.00
43436;BME280;36399;51.444;-2.018;2022-10-31T11:34:34;100191.16;;;15.76;100.00
43436;BME280;36399;51.444;-2.018;2022-10-31T11:37:13;100182.25;;;15.84;100.00
43436;BME280;36399;51.444;-2.018;2022-10-31T11:39:54;100180.28;;;15.98;100.00
43436;BME280;36399;51.444;-2.018;2022-10-31T11:42:24;100179.44;;;15.94;100.00
43436;BME280;36399;51.444;-2.018;2022-10-31T11:44:54;100175.81;;;16.01;100.00
43436;BME280;36399;51.444;-2.018;2022-10-31T11:47:28;100168.78;;;15.99;100.00
43436;BME280;36399;51.444;-2.018;2022-10-31T11:49:57;100160.75;;;16.05;100.00
43436;BME280;36399;51.444;-2.018;2022-10-31T11:52:29;100149.19;;;16.10;100.00
43436;BME280;36399;51.444;-2.018;2022-10-31T11:55:00;100135.88;;;16.18;100.00
43436;BME280;36399;51.444;-2.018;2022-10-31T11:57:33;100120.03;;;16.12;100.00
43436;BME280;36399;51.444;-2.018;2022-10-31T12:00:27;100127.25;;;16.02;100.00
43436;BME280;36399;51.444;-2.018;2022-10-31T12:03:30;100109.44;;;16.12;100.00
43436;BME280;36399;51.444;-2.018;2022-10-31T12:06:03;100096.13;;;16.20;100.00
43436;BME280;36399;51.444;-2.018;2022-10-31T12:08:34;100091.53;;;16.29;100.00
43436;BME280;36399;51.444;-2.018;2022-10-31T12:11:08;100091.84;;;16.62;100.00
43436;BME280;36399;51.444;-2.018;2022-10-31T12:16:21;100083.28;;;16.98;100.00
43436;BME280;36399;51.444;-2.018;2022-10-31T12:19:03;100080.31;;;16.69;100.00
43436;BME280;36399;51.444;-2.018;2022-10-31T12:27:18;100043.66;;;17.34;100.00
43436;BME280;36399;51.444;-2.018;2022-10-31T12:32:26;100034.16;;;17.62;100.00
43436;BME280;36399;51.444;-2.018;2022-10-31T12:43:49;100006.25;;;17.85;100.00
43436;BME280;36399;51.444;-2.018;2022-10-31T12:51:28;99971.94;;;19.09;100.00
43436;BME280;36399;51.444;-2.018;2022-10-31T12:54:10;99974.38;;;19.16;100.00
43436;BME280;36399;51.444;-2.018;2022-10-31T12:56:59;99985.44;;;18.70;100.00
43436;BME280;36399;51.444;-2.018;2022-10-31T12:59:44;99973.84;;;19.63;100.00
43436;BME280;36399;51.444;-2.018;2022-10-31T13:02:35;99975.06;;;19.23;100.00
43436;BME280;36399;51.444;-2.018;2022-10-31T13:10:37;99944.31;;;18.18;100.00
43436;BME280;36399;51.444;-2.018;2022-10-31T13:13:11;99934.50;;;18.22;100.00
43436;BME280;36399;51.444;-2.018;2022-10-31T13:15:50;99928.63;;;18.42;100.00
43436;BME280;36399;51.444;-2.018;2022-10-31T13:18:30;99930.53;;;18.04;100.00
43436;BME280;36399;51.444;-2.018;2022-10-31T13:20:59;99916.66;;;18.27;100.00
43436;BME280;36399;51.444;-2.018;2022-10-31T13:23:30;99913.25;;;18.20;100.00
43436;BME280;36399;51.444;-2.018;2022-10-31T13:25:59;99907.41;;;18.08;100.00
43436;BME280;36399;51.444;-2.018;2022-10-31T13:28:47;99901.53;;;17.59;100.00
43436;BME280;36399;51.444;-2.018;2022-10-31T13:31:14;99899.94;;;17.52;100.00
43436;BME280;36399;51.444;-2.018;2022-10-31T13:33:49;99896.59;;;17.44;100.00
43436;BME280;36399;51.444;-2.018;2022-10-31T13:40:11;99883.66;;;17.67;100.00
43436;BME280;36399;51.444;-2.018;2022-10-31T13:44:54;99868.47;;;17.37;100.00
43436;BME280;36399;51.444;-2.018;2022-10-31T13:49:46;99865.69;;;17.04;100.00
43436;BME280;36399;51.444;-2.018;2022-10-31T13:54:40;99850.31;;;16.82;100.00
43436;BME280;36399;51.444;-2.018;2022-10-31T13:57:13;99852.16;;;16.78;100.00
43436;BME280;36399;51.444;-2.018;2022-10-31T13:59:47;99836.94;;;16.45;100.00
43436;BME280;36399;51.444;-2.018;2022-10-31T14:02:26;99841.72;;;16.27;100.00
43436;BME280;36399;51.444;-2.018;2022-10-31T14:05:03;99849.13;;;16.08;100.00
43436;BME280;36399;51.444;-2.018;2022-10-31T14:07:31;99853.28;;;15.75;100.00
43436;BME280;36399;51.444;-2.018;2022-10-31T14:12:47;99838.91;;;15.38;100.00
43436;BME280;36399;51.444;-2.018;2022-10-31T14:15:16;99830.06;;;15.39;100.00